sensor_id;sensor_type;location;lat;lon;timestamp;pressure;altitude;pressure_sealevel;temperature;humidity
59600;BME280;61855;55.030;73.326;2022-08-18T00:01:24;100197.09;;;8.12;nan
59600;BME280;61855;55.030;73.326;2022-08-18T00:03:50;100203.81;;;8.16;nan
59600;BME280;61855;55.030;73.326;2022-08-18T00:06:17;100209.88;;;8.18;nan
59600;BME280;61855;55.030;73.326;2022-08-18T00:08:46;100206.88;;;8.21;nan
59600;BME280;61855;55.030;73.326;2022-08-18T00:11:12;100210.91;;;8.25;nan
59600;BME280;61855;55.030;73.326;2022-08-18T00:13:39;100203.41;;;8.29;nan
59600;BME280;61855;55.030;73.326;2022-08-18T00:16:16;100207.44;;;8.33;nan
59600;BME280;61855;55.030;73.326;2022-08-18T00:18:42;100209.28;;;8.32;nan
59600;BME280;61855;55.030;73.326;2022-08-18T00:21:13;100216.53;;;8.40;nan
59600;BME280;61855;55.030;73.326;2022-08-18T00:23:40;100218.91;;;8.43;nan
59600;BME280;61855;55.030;73.326;2022-08-18T00:26:07;100216.06;;;8.44;nan
59600;BME280;61855;55.030;73.326;2022-08-18T00:28:39;100214.88;;;8.47;nan
59600;BME280;61855;55.030;73.326;2022-08-18T00:31:09;100211.03;;;8.49;nan
59600;BME280;61855;55.030;73.326;2022-08-18T00:33:36;100212.56;;;8.52;nan
59600;BME280;61855;55.030;73.326;2022-08-18T00:36:09;100229.38;;;8.54;nan
59600;BME280;61855;55.030;73.326;2022-08-18T00:38:36;100221.97;;;8.56;nan
59600;BME280;61855;55.030;73.326;2022-08-18T00:41:03;100222.50;;;8.59;nan
59600;BME280;61855;55.030;73.326;2022-08-18T00:43:42;100239.31;;;8.61;nan
59600;BME280;61855;55.030;73.326;2022-08-18T00:46:31;100226.75;;;8.70;nan
59600;BME280;61855;55.030;73.326;2022-08-18T00:48:58;100230.44;;;8.77;nan
59600;BME280;61855;55.030;73.326;2022-08-18T00:51:29;100232.78;;;8.80;nan
59600;BME280;61855;55.030;73.326;2022-08-18T00:56:34;100231.47;;;8.92;nan
59600;BME280;61855;55.030;73.326;2022-08-18T00:59:53;100241.25;;;8.93;nan
59600;BME280;61855;55.030;73.326;2022-08-18T01:01:53;100244.78;;;8.94;nan
59600;BME280;61855;55.030;73.326;2022-08-18T01:04:25;100240.91;;;9.04;nan
59600;BME280;61855;55.030;73.326;2022-08-18T01:06:56;100248.81;;;9.06;nan
59600;BME280;61855;55.030;73.326;2022-08-18T01:09:26;100249.50;;;9.08;nan
59600;BME280;61855;55.030;73.326;2022-08-18T01:11:52;100243.63;;;9.20;nan
59600;BME280;61855;55.030;73.326;2022-08-18T01:14:19;100253.06;;;9.24;nan
59600;BME280;61855;55.030;73.326;2022-08-18T01:16:53;100248.19;;;9.20;nan
59600;BME280;61855;55.030;73.326;2022-08-18T01:19:37;100251.88;;;9.35;nan
59600;BME280;61855;55.030;73.326;2022-08-18T01:22:36;100247.50;;;9.26;nan
59600;BME280;61855;55.030;73.326;2022-08-18T01:25:05;100252.72;;;9.43;nan
59600;BME280;61855;55.030;73.326;2022-08-18T01:27:51;100265.03;;;9.46;nan
59600;BME280;61855;55.030;73.326;2022-08-18T01:30:17;100256.75;;;9.55;nan
59600;BME280;61855;55.030;73.326;2022-08-18T01:32:44;100252.03;;;9.66;nan
59600;BME280;61855;55.030;73.326;2022-08-18T01:35:15;100260.44;;;9.71;nan
59600;BME280;61855;55.030;73.326;2022-08-18T01:37:48;100268.22;;;9.58;nan
59600;BME280;61855;55.030;73.326;2022-08-18T01:40:18;100272.41;;;9.76;nan
59600;BME280;61855;55.030;73.326;2022-08-18T01:42:44;100266.84;;;9.78;nan
59600;BME280;61855;55.030;73.326;2022-08-18T01:45:16;100263.97;;;9.87;nan
59600;BME280;61855;55.030;73.326;2022-08-18T01:47:43;100270.84;;;9.98;nan
59600;BME280;61855;55.030;73.326;2022-08-18T01:50:20;100266.28;;;10.06;nan
59600;BME280;61855;55.030;73.326;2022-08-18T01:52:46;100263.78;;;10.05;nan
59600;BME280;61855;55.030;73.326;2022-08-18T01:55:12;100264.78;;;10.12;nan
59600;BME280;61855;55.030;73.326;2022-08-18T01:57:39;100272.34;;;10.16;nan
59600;BME280;61855;55.030;73.326;2022-08-18T02:00:08;100280.28;;;10.10;nan
59600;BME280;61855;55.030;73.326;2022-08-18T02:02:38;100279.13;;;10.12;nan
59600;BME280;61855;55.030;73.326;2022-08-18T02:05:13;100288.34;;;10.26;nan
59600;BME280;61855;55.030;73.326;2022-08-18T02:07:43;100265.63;;;10.12;nan
59600;BME280;61855;55.030;73.326;2022-08-18T02:10:09;100279.41;;;10.26;nan
59600;BME280;61855;55.030;73.326;2022-08-18T02:12:37;100291.72;;;10.20;nan
59600;BME280;61855;55.030;73.326;2022-08-18T02:15:04;100300.00;;;10.18;nan
59600;BME280;61855;55.030;73.326;2022-08-18T02:17:50;100282.09;;;10.34;nan
59600;BME280;61855;55.030;73.326;2022-08-18T02:20:19;100277.16;;;10.37;nan
59600;BME280;61855;55.030;73.326;2022-08-18T02:22:46;100291.66;;;10.44;nan
59600;BME280;61855;55.030;73.326;2022-08-18T02:25:14;100292.94;;;10.56;nan
59600;BME280;61855;55.030;73.326;2022-08-18T02:27:41;100308.97;;;10.58;nan
59600;BME280;61855;55.030;73.326;2022-08-18T02:30:15;100296.38;;;10.42;nan
59600;BME280;61855;55.030;73.326;2022-08-18T02:32:41;100299.72;;;10.52;nan
59600;BME280;61855;55.030;73.326;2022-08-18T02:35:08;100303.06;;;10.62;nan
59600;BME280;61855;55.030;73.326;2022-08-18T02:37:41;100290.91;;;10.66;nan
59600;BME280;61855;55.030;73.326;2022-08-18T02:40:08;100289.31;;;10.80;nan
59600;BME280;61855;55.030;73.326;2022-08-18T02:42:34;100299.84;;;10.98;nan
59600;BME280;61855;55.030;73.326;2022-08-18T02:45:00;100308.81;;;10.90;nan
59600;BME280;61855;55.030;73.326;2022-08-18T02:47:29;100307.66;;;10.84;nan
59600;BME280;61855;55.030;73.326;2022-08-18T02:50:03;100310.81;;;10.96;nan
59600;BME280;61855;55.030;73.326;2022-08-18T02:52:39;100303.88;;;11.02;nan
59600;BME280;61855;55.030;73.326;2022-08-18T02:55:07;100313.72;;;11.17;nan
59600;BME280;61855;55.030;73.326;2022-08-18T02:57:33;100315.31;;;11.34;nan
59600;BME280;61855;55.030;73.326;2022-08-18T03:00:01;100315.19;;;11.28;nan
59600;BME280;61855;55.030;73.326;2022-08-18T03:02:28;100315.44;;;11.41;nan
59600;BME280;61855;55.030;73.326;2022-08-18T03:04:59;100306.91;;;11.52;nan
59600;BME280;61855;55.030;73.326;2022-08-18T03:07:25;100312.25;;;11.60;nan
59600;BME280;61855;55.030;73.326;2022-08-18T03:09:51;100317.00;;;11.58;nan
59600;BME280;61855;55.030;73.326;2022-08-18T03:12:17;100327.44;;;11.61;nan
59600;BME280;61855;55.030;73.326;2022-08-18T03:14:43;100330.50;;;11.58;nan
59600;BME280;61855;55.030;73.326;2022-08-18T03:17:16;100327.06;;;11.41;nan
59600;BME280;61855;55.030;73.326;2022-08-18T03:19:42;100336.38;;;11.39;nan
59600;BME280;61855;55.030;73.326;2022-08-18T03:22:10;100333.69;;;11.39;nan
59600;BME280;61855;55.030;73.326;2022-08-18T03:24:36;100341.44;;;11.42;nan
59600;BME280;61855;55.030;73.326;2022-08-18T03:27:05;100333.94;;;11.52;nan
59600;BME280;61855;55.030;73.326;2022-08-18T03:29:33;100342.44;;;11.72;nan
59600;BME280;61855;55.030;73.326;2022-08-18T03:32:01;100346.50;;;11.68;nan
59600;BME280;61855;55.030;73.326;2022-08-18T03:34:28;100348.97;;;11.77;nan
59600;BME280;61855;55.030;73.326;2022-08-18T03:36:54;100346.31;;;11.92;nan
59600;BME280;61855;55.030;73.326;2022-08-18T03:39:20;100348.38;;;11.90;nan
59600;BME280;61855;55.030;73.326;2022-08-18T03:41:52;100356.81;;;12.09;nan
59600;BME280;61855;55.030;73.326;2022-08-18T03:44:22;100355.22;;;12.15;nan
59600;BME280;61855;55.030;73.326;2022-08-18T03:46:50;100352.66;;;12.36;nan
59600;BME280;61855;55.030;73.326;2022-08-18T03:49:16;100347.53;;;12.41;nan
59600;BME280;61855;55.030;73.326;2022-08-18T03:51:44;100357.06;;;12.52;nan
59600;BME280;61855;55.030;73.326;2022-08-18T03:54:15;100361.16;;;12.62;nan
59600;BME280;61855;55.030;73.326;2022-08-18T03:56:42;100357.91;;;12.67;nan
59600;BME280;61855;55.030;73.326;2022-08-18T03:59:14;100378.91;;;12.65;nan
59600;BME280;61855;55.030;73.326;2022-08-18T04:01:42;100363.13;;;12.54;nan
59600;BME280;61855;55.030;73.326;2022-08-18T04:04:16;100368.06;;;12.65;nan
59600;BME280;61855;55.030;73.326;2022-08-18T04:06:44;100364.91;;;12.61;nan
59600;BME280;61855;55.030;73.326;2022-08-18T04:09:15;100371.81;;;12.64;nan
59600;BME280;61855;55.030;73.326;2022-08-18T04:11:43;100373.31;;;12.66;nan
59600;BME280;61855;55.030;73.326;2022-08-18T04:14:13;100374.97;;;12.67;nan
59600;BME280;61855;55.030;73.326;2022-08-18T04:16:41;100367.91;;;12.81;nan
59600;BME280;61855;55.030;73.326;2022-08-18T04:19:08;100372.19;;;12.90;nan
59600;BME280;61855;55.030;73.326;2022-08-18T04:21:36;100371.25;;;13.12;nan
59600;BME280;61855;55.030;73.326;2022-08-18T04:24:04;100376.13;;;13.17;nan
59600;BME280;61855;55.030;73.326;2022-08-18T04:26:39;100378.84;;;13.17;nan
59600;BME280;61855;55.030;73.326;2022-08-18T04:29:07;100363.94;;;13.27;nan
59600;BME280;61855;55.030;73.326;2022-08-18T04:31:42;100367.47;;;13.42;nan
59600;BME280;61855;55.030;73.326;2022-08-18T04:34:08;100374.97;;;13.26;nan
59600;BME280;61855;55.030;73.326;2022-08-18T04:36:35;100379.91;;;13.22;nan
59600;BME280;61855;55.030;73.326;2022-08-18T04:39:03;100390.88;;;13.14;nan
59600;BME280;61855;55.030;73.326;2022-08-18T04:41:29;100369.72;;;13.24;nan
59600;BME280;61855;55.030;73.326;2022-08-18T04:43:57;100381.13;;;13.34;nan
59600;BME280;61855;55.030;73.326;2022-08-18T04:46:24;100368.75;;;13.46;nan
59600;BME280;61855;55.030;73.326;2022-08-18T04:49:01;100389.41;;;13.47;nan
59600;BME280;61855;55.030;73.326;2022-08-18T04:51:29;100378.69;;;13.39;nan
59600;BME280;61855;55.030;73.326;2022-08-18T04:53:56;100367.53;;;13.49;nan
59600;BME280;61855;55.030;73.326;2022-08-18T04:56:28;100368.84;;;13.38;nan
59600;BME280;61855;55.030;73.326;2022-08-18T04:59:08;100332.75;;;13.52;nan
59600;BME280;61855;55.030;73.326;2022-08-18T05:01:37;100367.84;;;13.61;nan
59600;BME280;61855;55.030;73.326;2022-08-18T05:04:04;100371.53;;;13.53;nan
59600;BME280;61855;55.030;73.326;2022-08-18T05:06:31;100379.38;;;13.48;nan
59600;BME280;61855;55.030;73.326;2022-08-18T05:09:00;100377.44;;;13.42;nan
59600;BME280;61855;55.030;73.326;2022-08-18T05:11:29;100366.13;;;13.38;nan
59600;BME280;61855;55.030;73.326;2022-08-18T05:14:00;100378.78;;;13.31;nan
59600;BME280;61855;55.030;73.326;2022-08-18T05:16:28;100388.28;;;13.42;nan
59600;BME280;61855;55.030;73.326;2022-08-18T05:18:59;100365.03;;;13.69;nan
59600;BME280;61855;55.030;73.326;2022-08-18T05:21:28;100371.09;;;13.92;nan
59600;BME280;61855;55.030;73.326;2022-08-18T05:23:59;100374.72;;;13.78;nan
59600;BME280;61855;55.030;73.326;2022-08-18T05:26:25;100380.28;;;13.55;nan
59600;BME280;61855;55.030;73.326;2022-08-18T05:28:54;100389.00;;;13.50;nan
59600;BME280;61855;55.030;73.326;2022-08-18T05:31:23;100381.16;;;13.77;nan
59600;BME280;61855;55.030;73.326;2022-08-18T05:33:51;100384.34;;;14.01;nan
59600;BME280;61855;55.030;73.326;2022-08-18T05:39:14;100396.97;;;14.15;nan
59600;BME280;61855;55.030;73.326;2022-08-18T05:44:28;100385.16;;;13.60;nan
59600;BME280;61855;55.030;73.326;2022-08-18T05:46:56;100387.09;;;13.66;nan
59600;BME280;61855;55.030;73.326;2022-08-18T05:49:25;100400.66;;;13.87;nan
59600;BME280;61855;55.030;73.326;2022-08-18T05:52:05;100382.44;;;14.23;nan
59600;BME280;61855;55.030;73.326;2022-08-18T05:54:40;100390.34;;;14.46;nan
59600;BME280;61855;55.030;73.326;2022-08-18T05:57:29;100374.16;;;14.31;nan
59600;BME280;61855;55.030;73.326;2022-08-18T05:59:57;100396.13;;;14.36;nan
59600;BME280;61855;55.030;73.326;2022-08-18T06:02:42;100386.72;;;14.11;nan
59600;BME280;61855;55.030;73.326;2022-08-18T06:05:30;100402.94;;;14.04;nan
59600;BME280;61855;55.030;73.326;2022-08-18T06:08:24;100399.91;;;13.93;nan
59600;BME280;61855;55.030;73.326;2022-08-18T06:10:52;100408.91;;;13.79;nan
59600;BME280;61855;55.030;73.326;2022-08-18T06:13:24;100393.00;;;13.90;nan
59600;BME280;61855;55.030;73.326;2022-08-18T06:19:20;100380.38;;;14.53;nan
59600;BME280;61855;55.030;73.326;2022-08-18T06:22:15;100397.91;;;14.78;nan
59600;BME280;61855;55.030;73.326;2022-08-18T06:25:01;100382.81;;;14.41;nan
59600;BME280;61855;55.030;73.326;2022-08-18T06:27:37;100405.75;;;14.17;nan
59600;BME280;61855;55.030;73.326;2022-08-18T06:30:19;100385.09;;;13.95;nan
59600;BME280;61855;55.030;73.326;2022-08-18T06:38:34;100388.06;;;14.77;nan
59600;BME280;61855;55.030;73.326;2022-08-18T06:43:59;100379.00;;;14.63;nan
59600;BME280;61855;55.030;73.326;2022-08-18T06:46:38;100392.00;;;14.40;nan
59600;BME280;61855;55.030;73.326;2022-08-18T06:49:10;100374.88;;;14.18;nan
59600;BME280;61855;55.030;73.326;2022-08-18T06:51:37;100341.97;;;14.28;nan
59600;BME280;61855;55.030;73.326;2022-08-18T06:54:07;100365.09;;;14.45;nan
59600;BME280;61855;55.030;73.326;2022-08-18T06:59:21;100379.19;;;14.96;nan
59600;BME280;61855;55.030;73.326;2022-08-18T07:02:16;100360.13;;;15.30;nan
59600;BME280;61855;55.030;73.326;2022-08-18T07:05:07;100387.47;;;15.16;nan
59600;BME280;61855;55.030;73.326;2022-08-18T07:07:40;100384.75;;;15.16;nan
59600;BME280;61855;55.030;73.326;2022-08-18T07:12:51;100369.25;;;14.69;nan
59600;BME280;61855;55.030;73.326;2022-08-18T07:15:23;100392.19;;;14.66;nan
59600;BME280;61855;55.030;73.326;2022-08-18T07:17:49;100380.63;;;14.58;nan
59600;BME280;61855;55.030;73.326;2022-08-18T07:20:23;100360.38;;;14.88;nan
59600;BME280;61855;55.030;73.326;2022-08-18T07:25:25;100358.50;;;15.42;nan
59600;BME280;61855;55.030;73.326;2022-08-18T07:27:53;100376.47;;;15.37;nan
59600;BME280;61855;55.030;73.326;2022-08-18T07:32:52;100401.69;;;14.83;nan
59600;BME280;61855;55.030;73.326;2022-08-18T07:35:27;100416.19;;;14.63;nan
59600;BME280;61855;55.030;73.326;2022-08-18T07:38:24;100409.28;;;14.60;nan
59600;BME280;61855;55.030;73.326;2022-08-18T07:41:26;100397.94;;;14.84;nan
59600;BME280;61855;55.030;73.326;2022-08-18T07:44:13;100389.59;;;14.86;nan
59600;BME280;61855;55.030;73.326;2022-08-18T07:46:59;100401.53;;;14.91;nan
59600;BME280;61855;55.030;73.326;2022-08-18T07:49:34;100390.59;;;15.19;nan
59600;BME280;61855;55.030;73.326;2022-08-18T07:55:26;100408.16;;;15.17;nan
59600;BME280;61855;55.030;73.326;2022-08-18T07:58:07;100402.88;;;14.74;nan
59600;BME280;61855;55.030;73.326;2022-08-18T08:00:57;100427.56;;;14.73;nan
59600;BME280;61855;55.030;73.326;2022-08-18T08:06:18;100399.56;;;14.45;nan
59600;BME280;61855;55.030;73.326;2022-08-18T08:17:11;100404.47;;;14.90;nan
59600;BME280;61855;55.030;73.326;2022-08-18T08:25:35;100422.53;;;15.04;nan
59600;BME280;61855;55.030;73.326;2022-08-18T08:33:56;100434.91;;;15.13;nan
59600;BME280;61855;55.030;73.326;2022-08-18T08:36:30;100444.50;;;15.09;nan
59600;BME280;61855;55.030;73.326;2022-08-18T08:38:59;100421.72;;;15.17;nan
59600;BME280;61855;55.030;73.326;2022-08-18T08:41:34;100427.19;;;14.82;nan
59600;BME280;61855;55.030;73.326;2022-08-18T08:44:17;100436.13;;;14.76;nan
59600;BME280;61855;55.030;73.326;2022-08-18T08:49:42;100419.50;;;15.27;nan
59600;BME280;61855;55.030;73.326;2022-08-18T08:52:20;100418.09;;;15.44;nan
59600;BME280;61855;55.030;73.326;2022-08-18T08:54:55;100427.47;;;15.28;nan
59600;BME280;61855;55.030;73.326;2022-08-18T08:57:32;100437.13;;;15.03;nan
59600;BME280;61855;55.030;73.326;2022-08-18T09:00:11;100452.34;;;14.98;nan
59600;BME280;61855;55.030;73.326;2022-08-18T09:02:53;100441.94;;;15.01;nan
59600;BME280;61855;55.030;73.326;2022-08-18T09:05:34;100450.19;;;14.86;nan
59600;BME280;61855;55.030;73.326;2022-08-18T09:08:24;100438.84;;;14.76;nan
59600;BME280;61855;55.030;73.326;2022-08-18T09:11:14;100448.38;;;14.93;nan
59600;BME280;61855;55.030;73.326;2022-08-18T09:17:05;100446.22;;;14.82;nan
59600;BME280;61855;55.030;73.326;2022-08-18T09:28:08;100438.75;;;15.25;nan
59600;BME280;61855;55.030;73.326;2022-08-18T09:36:32;100432.19;;;15.13;nan
59600;BME280;61855;55.030;73.326;2022-08-18T09:39:25;100438.22;;;15.09;nan
59600;BME280;61855;55.030;73.326;2022-08-18T10:06:44;100418.94;;;16.24;nan
59600;BME280;61855;55.030;73.326;2022-08-18T10:17:45;100431.94;;;16.29;nan
59600;BME280;61855;55.030;73.326;2022-08-18T10:23:04;100427.78;;;16.40;nan
59600;BME280;61855;55.030;73.326;2022-08-18T10:25:41;100425.44;;;16.50;nan
59600;BME280;61855;55.030;73.326;2022-08-18T10:28:53;100441.78;;;16.50;nan
59600;BME280;61855;55.030;73.326;2022-08-18T10:31:19;100437.41;;;16.62;nan
59600;BME280;61855;55.030;73.326;2022-08-18T10:34:02;100422.53;;;16.45;nan
59600;BME280;61855;55.030;73.326;2022-08-18T10:36:44;100447.78;;;15.93;nan
59600;BME280;61855;55.030;73.326;2022-08-18T10:39:26;100460.25;;;15.54;nan
59600;BME280;61855;55.030;73.326;2022-08-18T10:42:24;100430.56;;;15.19;nan
59600;BME280;61855;55.030;73.326;2022-08-18T10:45:23;100447.59;;;15.00;nan
59600;BME280;61855;55.030;73.326;2022-08-18T10:50:38;100464.38;;;14.82;nan
59600;BME280;61855;55.030;73.326;2022-08-18T10:53:21;100456.09;;;14.90;nan
59600;BME280;61855;55.030;73.326;2022-08-18T10:58:42;100484.88;;;16.00;nan
59600;BME280;61855;55.030;73.326;2022-08-18T11:06:28;100467.50;;;19.63;nan
59600;BME280;61855;55.030;73.326;2022-08-18T11:09:02;100472.06;;;20.46;nan
59600;BME280;61855;55.030;73.326;2022-08-18T11:11:39;100455.69;;;21.27;nan
59600;BME280;61855;55.030;73.326;2022-08-18T11:14:22;100454.50;;;20.06;nan
59600;BME280;61855;55.030;73.326;2022-08-18T11:17:01;100478.63;;;19.07;nan
59600;BME280;61855;55.030;73.326;2022-08-18T11:19:37;100484.09;;;18.57;nan
59600;BME280;61855;55.030;73.326;2022-08-18T11:22:25;100466.84;;;17.56;nan
59600;BME280;61855;55.030;73.326;2022-08-18T11:24:51;100469.66;;;16.98;nan
59600;BME280;61855;55.030;73.326;2022-08-18T11:27:24;100470.69;;;16.31;nan
59600;BME280;61855;55.030;73.326;2022-08-18T11:29:51;100497.59;;;15.87;nan
59600;BME280;61855;55.030;73.326;2022-08-18T11:32:31;100486.66;;;15.74;nan
59600;BME280;61855;55.030;73.326;2022-08-18T11:38:03;100504.47;;;15.08;nan
59600;BME280;61855;55.030;73.326;2022-08-18T11:40:41;100494.25;;;15.10;nan
59600;BME280;61855;55.030;73.326;2022-08-18T11:45:51;100496.97;;;15.10;nan
59600;BME280;61855;55.030;73.326;2022-08-18T11:58:59;100484.03;;;15.46;nan
59600;BME280;61855;55.030;73.326;2022-08-18T12:06:54;100498.69;;;19.19;nan
59600;BME280;61855;55.030;73.326;2022-08-18T12:09:39;100492.16;;;19.44;nan
59600;BME280;61855;55.030;73.326;2022-08-18T12:14:58;100498.44;;;18.15;nan
59600;BME280;61855;55.030;73.326;2022-08-18T12:17:26;100514.91;;;17.44;nan
59600;BME280;61855;55.030;73.326;2022-08-18T12:19:58;100507.81;;;16.98;nan
59600;BME280;61855;55.030;73.326;2022-08-18T12:22:26;100504.28;;;16.64;nan
59600;BME280;61855;55.030;73.326;2022-08-18T12:24:58;100506.47;;;16.08;nan
59600;BME280;61855;55.030;73.326;2022-08-18T12:27:27;100509.31;;;15.81;nan
59600;BME280;61855;55.030;73.326;2022-08-18T12:29:55;100518.03;;;15.63;nan
59600;BME280;61855;55.030;73.326;2022-08-18T12:32:24;100511.13;;;15.67;nan
59600;BME280;61855;55.030;73.326;2022-08-18T12:34:51;100512.94;;;15.47;nan
59600;BME280;61855;55.030;73.326;2022-08-18T12:37:20;100500.66;;;15.30;nan
59600;BME280;61855;55.030;73.326;2022-08-18T12:39:47;100510.72;;;15.36;nan
59600;BME280;61855;55.030;73.326;2022-08-18T12:42:14;100520.25;;;15.19;nan
59600;BME280;61855;55.030;73.326;2022-08-18T12:44:40;100521.03;;;15.13;nan
59600;BME280;61855;55.030;73.326;2022-08-18T12:47:18;100514.72;;;15.06;nan
59600;BME280;61855;55.030;73.326;2022-08-18T12:49:46;100515.59;;;15.13;nan
59600;BME280;61855;55.030;73.326;2022-08-18T12:52:13;100512.47;;;15.09;nan
59600;BME280;61855;55.030;73.326;2022-08-18T12:54:39;100544.81;;;15.04;nan
59600;BME280;61855;55.030;73.326;2022-08-18T12:57:22;100524.50;;;15.00;nan
59600;BME280;61855;55.030;73.326;2022-08-18T12:59:59;100530.97;;;14.99;nan
59600;BME280;61855;55.030;73.326;2022-08-18T13:02:25;100522.72;;;15.14;nan
59600;BME280;61855;55.030;73.326;2022-08-18T13:04:51;100541.69;;;15.35;nan
59600;BME280;61855;55.030;73.326;2022-08-18T13:07:18;100516.44;;;16.81;nan
59600;BME280;61855;55.030;73.326;2022-08-18T13:09:44;100516.22;;;16.96;nan
59600;BME280;61855;55.030;73.326;2022-08-18T13:12:10;100521.16;;;17.65;nan
59600;BME280;61855;55.030;73.326;2022-08-18T13:14:37;100532.44;;;18.63;nan
59600;BME280;61855;55.030;73.326;2022-08-18T13:17:03;100522.63;;;19.48;nan
59600;BME280;61855;55.030;73.326;2022-08-18T13:19:29;100525.47;;;19.78;nan
59600;BME280;61855;55.030;73.326;2022-08-18T13:21:57;100516.44;;;20.25;nan
59600;BME280;61855;55.030;73.326;2022-08-18T13:24:23;100522.41;;;20.63;nan
59600;BME280;61855;55.030;73.326;2022-08-18T13:26:49;100537.47;;;20.43;nan
59600;BME280;61855;55.030;73.326;2022-08-18T13:29:16;100515.25;;;20.33;nan
59600;BME280;61855;55.030;73.326;2022-08-18T13:31:43;100525.34;;;20.50;nan
59600;BME280;61855;55.030;73.326;2022-08-18T13:34:09;100524.69;;;20.89;nan
59600;BME280;61855;55.030;73.326;2022-08-18T13:36:35;100524.16;;;21.11;nan
59600;BME280;61855;55.030;73.326;2022-08-18T13:39:17;100531.28;;;21.00;nan
59600;BME280;61855;55.030;73.326;2022-08-18T13:41:45;100526.66;;;21.35;nan
59600;BME280;61855;55.030;73.326;2022-08-18T13:44:12;100530.25;;;21.36;nan
59600;BME280;61855;55.030;73.326;2022-08-18T13:46:40;100525.31;;;20.91;nan
59600;BME280;61855;55.030;73.326;2022-08-18T13:49:21;100520.59;;;20.69;nan
59600;BME280;61855;55.030;73.326;2022-08-18T13:51:49;100520.84;;;20.67;nan
59600;BME280;61855;55.030;73.326;2022-08-18T13:54:20;100528.47;;;20.06;nan
59600;BME280;61855;55.030;73.326;2022-08-18T13:56:47;100532.75;;;19.84;nan
59600;BME280;61855;55.030;73.326;2022-08-18T13:59:15;100548.03;;;19.91;nan
59600;BME280;61855;55.030;73.326;2022-08-18T14:01:42;100530.75;;;19.54;nan
59600;BME280;61855;55.030;73.326;2022-08-18T14:04:11;100531.88;;;19.04;nan
59600;BME280;61855;55.030;73.326;2022-08-18T14:06:38;100539.72;;;18.69;nan
59600;BME280;61855;55.030;73.326;2022-08-18T14:09:05;100556.66;;;18.15;nan
59600;BME280;61855;55.030;73.326;2022-08-18T14:11:32;100548.34;;;17.91;nan
59600;BME280;61855;55.030;73.326;2022-08-18T14:14:00;100560.19;;;17.65;nan
59600;BME280;61855;55.030;73.326;2022-08-18T14:16:36;100548.09;;;16.76;nan
59600;BME280;61855;55.030;73.326;2022-08-18T14:19:02;100574.28;;;15.97;nan
59600;BME280;61855;55.030;73.326;2022-08-18T14:21:52;100566.75;;;15.30;nan
59600;BME280;61855;55.030;73.326;2022-08-18T14:24:39;100563.88;;;14.83;nan
59600;BME280;61855;55.030;73.326;2022-08-18T14:27:33;100569.81;;;14.51;nan
59600;BME280;61855;55.030;73.326;2022-08-18T14:30:05;100580.38;;;14.24;nan
59600;BME280;61855;55.030;73.326;2022-08-18T14:32:35;100565.16;;;14.09;nan
59600;BME280;61855;55.030;73.326;2022-08-18T14:35:12;100589.06;;;13.84;nan
59600;BME280;61855;55.030;73.326;2022-08-18T14:37:40;100582.53;;;13.64;nan
59600;BME280;61855;55.030;73.326;2022-08-18T14:40:07;100588.25;;;13.54;nan
59600;BME280;61855;55.030;73.326;2022-08-18T14:42:33;100588.03;;;13.41;nan
59600;BME280;61855;55.030;73.326;2022-08-18T14:45:00;100595.22;;;13.34;nan
59600;BME280;61855;55.030;73.326;2022-08-18T14:47:26;100592.13;;;13.23;nan
59600;BME280;61855;55.030;73.326;2022-08-18T14:49:53;100597.25;;;13.18;nan
59600;BME280;61855;55.030;73.326;2022-08-18T14:52:21;100593.41;;;13.12;nan
59600;BME280;61855;55.030;73.326;2022-08-18T14:54:49;100605.50;;;13.10;nan
59600;BME280;61855;55.030;73.326;2022-08-18T14:57:15;100605.72;;;13.00;nan
59600;BME280;61855;55.030;73.326;2022-08-18T14:59:46;100607.72;;;12.98;nan
59600;BME280;61855;55.030;73.326;2022-08-18T15:02:17;100612.34;;;12.98;nan
59600;BME280;61855;55.030;73.326;2022-08-18T15:04:43;100617.56;;;12.99;nan
59600;BME280;61855;55.030;73.326;2022-08-18T15:07:10;100609.97;;;12.95;nan
59600;BME280;61855;55.030;73.326;2022-08-18T15:09:37;100610.63;;;12.97;nan
59600;BME280;61855;55.030;73.326;2022-08-18T15:12:03;100608.69;;;12.90;nan
59600;BME280;61855;55.030;73.326;2022-08-18T15:14:30;100618.31;;;12.93;nan
59600;BME280;61855;55.030;73.326;2022-08-18T15:16:57;100616.59;;;12.92;nan
59600;BME280;61855;55.030;73.326;2022-08-18T15:19:24;100615.09;;;12.89;nan
59600;BME280;61855;55.030;73.326;2022-08-18T15:21:50;100614.25;;;12.89;nan
59600;BME280;61855;55.030;73.326;2022-08-18T15:24:38;100610.59;;;12.82;nan
59600;BME280;61855;55.030;73.326;2022-08-18T15:27:33;100615.53;;;12.78;nan
59600;BME280;61855;55.030;73.326;2022-08-18T15:30:08;100623.47;;;12.80;nan
59600;BME280;61855;55.030;73.326;2022-08-18T15:32:40;100623.81;;;12.77;nan
59600;BME280;61855;55.030;73.326;2022-08-18T15:35:11;100623.16;;;12.75;nan
59600;BME280;61855;55.030;73.326;2022-08-18T15:37:50;100615.25;;;12.73;nan
59600;BME280;61855;55.030;73.326;2022-08-18T15:40:25;100623.53;;;12.72;nan
59600;BME280;61855;55.030;73.326;2022-08-18T15:43:06;100623.91;;;12.69;nan
59600;BME280;61855;55.030;73.326;2022-08-18T15:45:37;100623.91;;;12.69;nan
59600;BME280;61855;55.030;73.326;2022-08-18T15:48:13;100613.78;;;12.63;nan
59600;BME280;61855;55.030;73.326;2022-08-18T15:50:42;100615.13;;;12.67;nan
59600;BME280;61855;55.030;73.326;2022-08-18T15:53:10;100618.19;;;12.64;nan
59600;BME280;61855;55.030;73.326;2022-08-18T15:55:48;100617.88;;;12.59;nan
59600;BME280;61855;55.030;73.326;2022-08-18T15:58:17;100626.31;;;12.64;nan